ROMMA est une association bénévole à but non lucratif. Votre soutien est indispensable : ADHERER à ROMMA ou FAIRE un DON

Engins - (38, Isère)

Vercors (906 m)   Longitude: 05° 37' E   Latitude: 45° 11' N Station partenaire n°139
 

Détail journalier du     <<     >>

Température Precipitation Humidité Vent Dir Rafale Dir. rafale Ensol.
Heure (°C) (mm) (%) (km/h) (km/h) (min)
01:00 15.40728SO23SSO0
02:00 15.407111SSO26SO0
03:00 14.80754SSO13OSO0
04:00 13.40812N10NNO0
05:00 14.80743N11SSO0
06:00 16.30694SO15S0
07:00 16.30684SSO13OSO0
08:00 16.70644SSO16O0
09:00 17.60605SSO26SO20
10:00 18.20666S29S15
11:00 21.704811S31S55
12:00 19.80718SSE34SSE60
13:00 21.30604N19SE55
14:00 22.904815S32SSE60
15:00 23.304217S39SSE60
16:00 23.104019S40SSE60
17:00 22.304211S34S50
18:00 20.50498SSO26SSE0
19:00 20.80418SO26S0
20:00 19.10445SO16SSE0
21:00 19.20465OSO21O0
22:00 18.00595SSO16OSO0
23:00 16.40663NNO18O0
minuit 14.30783NNO11N0

Graphique du 13-10-2019

 

Serveur OMMA